sensor_id;sensor_type;location;lat;lon;timestamp;pressure;altitude;pressure_sealevel;temperature;humidity
43824;BME280;29470;53.550;9.926;2023-07-22T00:04:31;100706.84;;;17.92;85.44
43824;BME280;29470;53.550;9.926;2023-07-22T00:09:34;100711.41;;;17.75;86.83
43824;BME280;29470;53.550;9.926;2023-07-22T00:14:39;100699.34;;;17.78;85.06
43824;BME280;29470;53.550;9.926;2023-07-22T00:19:44;100704.41;;;17.74;86.30
43824;BME280;29470;53.550;9.926;2023-07-22T00:24:47;100708.84;;;17.76;85.35
43824;BME280;29470;53.550;9.926;2023-07-22T00:29:50;100704.09;;;17.89;85.00
43824;BME280;29470;53.550;9.926;2023-07-22T00:34:54;100699.06;;;17.71;84.23
43824;BME280;29470;53.550;9.926;2023-07-22T00:39:58;100704.31;;;17.72;84.59
43824;BME280;29470;53.550;9.926;2023-07-22T00:45:01;100702.66;;;17.74;85.10
43824;BME280;29470;53.550;9.926;2023-07-22T00:50:07;100704.78;;;17.39;86.33
43824;BME280;29470;53.550;9.926;2023-07-22T00:55:10;100704.56;;;17.78;84.26
43824;BME280;29470;53.550;9.926;2023-07-22T01:00:14;100702.16;;;17.83;83.89
43824;BME280;29470;53.550;9.926;2023-07-22T01:05:19;100700.38;;;17.82;84.27
43824;BME280;29470;53.550;9.926;2023-07-22T01:10:22;100698.94;;;17.67;83.93
43824;BME280;29470;53.550;9.926;2023-07-22T01:15:25;100701.47;;;17.43;86.06
43824;BME280;29470;53.550;9.926;2023-07-22T01:20:30;100695.91;;;17.57;85.57
43824;BME280;29470;53.550;9.926;2023-07-22T01:25:34;100691.50;;;17.56;83.80
43824;BME280;29470;53.550;9.926;2023-07-22T01:30:37;100699.09;;;17.49;84.79
43824;BME280;29470;53.550;9.926;2023-07-22T01:35:41;100693.16;;;17.54;84.88
43824;BME280;29470;53.550;9.926;2023-07-22T01:40:45;100687.41;;;17.62;83.46
43824;BME280;29470;53.550;9.926;2023-07-22T01:45:48;100679.53;;;17.62;82.35
43824;BME280;29470;53.550;9.926;2023-07-22T01:50:51;100674.75;;;17.50;82.09
43824;BME280;29470;53.550;9.926;2023-07-22T01:55:55;100685.09;;;17.05;86.17
43824;BME280;29470;53.550;9.926;2023-07-22T02:00:58;100680.25;;;16.73;87.48
43824;BME280;29470;53.550;9.926;2023-07-22T02:06:02;100684.88;;;16.81;86.42
43824;BME280;29470;53.550;9.926;2023-07-22T02:11:08;100688.66;;;17.07;86.34
43824;BME280;29470;53.550;9.926;2023-07-22T02:16:11;100684.94;;;17.23;83.64
43824;BME280;29470;53.550;9.926;2023-07-22T02:21:14;100682.34;;;17.02;85.45
43824;BME280;29470;53.550;9.926;2023-07-22T02:26:18;100687.97;;;17.11;84.33
43824;BME280;29470;53.550;9.926;2023-07-22T02:31:21;100690.94;;;16.99;83.94
43824;BME280;29470;53.550;9.926;2023-07-22T02:36:24;100698.78;;;17.20;83.19
43824;BME280;29470;53.550;9.926;2023-07-22T02:41:29;100700.50;;;16.99;83.07
43824;BME280;29470;53.550;9.926;2023-07-22T02:46:32;100706.84;;;16.64;85.97
43824;BME280;29470;53.550;9.926;2023-07-22T02:51:35;100699.50;;;16.75;86.35
43824;BME280;29470;53.550;9.926;2023-07-22T02:56:39;100705.22;;;16.88;84.78
43824;BME280;29470;53.550;9.926;2023-07-22T03:01:42;100708.34;;;17.20;83.62
43824;BME280;29470;53.550;9.926;2023-07-22T03:06:46;100709.69;;;17.10;83.89
43824;BME280;29470;53.550;9.926;2023-07-22T03:11:50;100702.13;;;17.16;83.08
43824;BME280;29470;53.550;9.926;2023-07-22T03:16:53;100708.59;;;17.26;81.55
43824;BME280;29470;53.550;9.926;2023-07-22T03:21:56;100722.88;;;17.13;81.36
43824;BME280;29470;53.550;9.926;2023-07-22T03:27:00;100713.75;;;17.03;82.71
43824;BME280;29470;53.550;9.926;2023-07-22T03:32:04;100714.53;;;17.22;81.22
43824;BME280;29470;53.550;9.926;2023-07-22T03:37:07;100720.88;;;17.07;81.13
43824;BME280;29470;53.550;9.926;2023-07-22T03:42:12;100724.72;;;17.58;80.12
43824;BME280;29470;53.550;9.926;2023-07-22T03:47:15;100721.38;;;17.62;78.94
43824;BME280;29470;53.550;9.926;2023-07-22T03:52:18;100721.81;;;17.50;79.12
43824;BME280;29470;53.550;9.926;2023-07-22T03:57:26;100725.94;;;17.03;80.59
43824;BME280;29470;53.550;9.926;2023-07-22T04:02:29;100726.94;;;17.49;80.02
43824;BME280;29470;53.550;9.926;2023-07-22T04:07:32;100727.25;;;17.78;78.11
43824;BME280;29470;53.550;9.926;2023-07-22T04:12:36;100730.78;;;17.15;79.21
43824;BME280;29470;53.550;9.926;2023-07-22T04:17:43;100737.25;;;17.67;77.81
43824;BME280;29470;53.550;9.926;2023-07-22T04:22:46;100746.47;;;17.57;78.55
43824;BME280;29470;53.550;9.926;2023-07-22T04:27:50;100746.50;;;17.80;77.48
43824;BME280;29470;53.550;9.926;2023-07-22T04:32:53;100744.72;;;17.79;77.05
43824;BME280;29470;53.550;9.926;2023-07-22T04:37:56;100747.47;;;17.82;75.18
43824;BME280;29470;53.550;9.926;2023-07-22T04:43:00;100756.44;;;17.66;76.16
43824;BME280;29470;53.550;9.926;2023-07-22T04:48:04;100777.28;;;17.02;80.67
43824;BME280;29470;53.550;9.926;2023-07-22T04:53:07;100776.94;;;17.35;79.89
43824;BME280;29470;53.550;9.926;2023-07-22T04:58:11;100773.53;;;17.58;77.68
43824;BME280;29470;53.550;9.926;2023-07-22T05:03:14;100783.97;;;17.79;78.49
43824;BME280;29470;53.550;9.926;2023-07-22T05:08:17;100777.28;;;18.31;74.75
43824;BME280;29470;53.550;9.926;2023-07-22T05:13:22;100783.91;;;18.21;74.65
43824;BME280;29470;53.550;9.926;2023-07-22T05:18:24;100781.22;;;18.20;75.24
43824;BME280;29470;53.550;9.926;2023-07-22T05:23:27;100782.88;;;18.40;73.24
43824;BME280;29470;53.550;9.926;2023-07-22T05:28:31;100775.47;;;18.53;72.98
43824;BME280;29470;53.550;9.926;2023-07-22T05:33:34;100780.22;;;18.63;72.32
43824;BME280;29470;53.550;9.926;2023-07-22T05:38:37;100782.03;;;19.13;70.45
43824;BME280;29470;53.550;9.926;2023-07-22T05:43:41;100784.28;;;18.79;72.40
43824;BME280;29470;53.550;9.926;2023-07-22T05:48:44;100782.88;;;19.38;69.26
43824;BME280;29470;53.550;9.926;2023-07-22T05:53:47;100789.28;;;19.20;69.25
43824;BME280;29470;53.550;9.926;2023-07-22T05:58:51;100799.25;;;19.31;70.10
43824;BME280;29470;53.550;9.926;2023-07-22T06:03:54;100799.09;;;20.36;67.42
43824;BME280;29470;53.550;9.926;2023-07-22T06:08:57;100789.66;;;20.42;65.08
43824;BME280;29470;53.550;9.926;2023-07-22T06:14:02;100795.16;;;19.39;69.32
43824;BME280;29470;53.550;9.926;2023-07-22T06:19:07;100790.53;;;20.12;66.22
43824;BME280;29470;53.550;9.926;2023-07-22T06:24:10;100800.22;;;20.74;64.24
43824;BME280;29470;53.550;9.926;2023-07-22T06:29:14;100799.84;;;20.91;62.88
43824;BME280;29470;53.550;9.926;2023-07-22T06:34:19;100804.88;;;20.53;64.51
43824;BME280;29470;53.550;9.926;2023-07-22T06:39:22;100806.66;;;20.84;62.21
43824;BME280;29470;53.550;9.926;2023-07-22T06:44:26;100801.38;;;21.50;60.00
43824;BME280;29470;53.550;9.926;2023-07-22T06:49:31;100798.19;;;22.39;57.63
43824;BME280;29470;53.550;9.926;2023-07-22T06:54:35;100803.38;;;21.94;58.03
43824;BME280;29470;53.550;9.926;2023-07-22T06:59:39;100793.47;;;23.57;53.45
43824;BME280;29470;53.550;9.926;2023-07-22T07:04:42;100796.28;;;23.68;53.19
43824;BME280;29470;53.550;9.926;2023-07-22T07:09:45;100801.63;;;24.30;49.64
43824;BME280;29470;53.550;9.926;2023-07-22T07:14:51;100803.50;;;24.38;50.76
43824;BME280;29470;53.550;9.926;2023-07-22T07:19:54;100812.78;;;24.76;48.53
43824;BME280;29470;53.550;9.926;2023-07-22T07:24:56;100812.69;;;23.02;52.82
43824;BME280;29470;53.550;9.926;2023-07-22T07:30:01;100813.94;;;24.98;48.13
43824;BME280;29470;53.550;9.926;2023-07-22T07:35:04;100824.97;;;24.62;48.49
43824;BME280;29470;53.550;9.926;2023-07-22T07:40:08;100826.09;;;22.69;52.41
43824;BME280;29470;53.550;9.926;2023-07-22T07:45:13;100823.03;;;24.48;47.96
43824;BME280;29470;53.550;9.926;2023-07-22T07:50:16;100828.56;;;24.67;48.12
43824;BME280;29470;53.550;9.926;2023-07-22T07:55:19;100823.25;;;28.65;39.71
43824;BME280;29470;53.550;9.926;2023-07-22T08:00:23;100828.63;;;28.48;39.67
43824;BME280;29470;53.550;9.926;2023-07-22T08:05:26;100829.59;;;27.35;41.14
43824;BME280;29470;53.550;9.926;2023-07-22T08:10:29;100836.59;;;25.55;44.53
43824;BME280;29470;53.550;9.926;2023-07-22T08:15:33;100825.16;;;27.46;41.33
43824;BME280;29470;53.550;9.926;2023-07-22T08:20:36;100833.16;;;28.13;40.24
43824;BME280;29470;53.550;9.926;2023-07-22T08:25:39;100833.13;;;27.42;39.41
43824;BME280;29470;53.550;9.926;2023-07-22T08:30:43;100839.00;;;26.40;41.15
43824;BME280;29470;53.550;9.926;2023-07-22T08:35:47;100844.78;;;24.96;42.96
43824;BME280;29470;53.550;9.926;2023-07-22T08:40:50;100849.41;;;24.45;44.31
43824;BME280;29470;53.550;9.926;2023-07-22T08:45:58;100841.88;;;24.76;43.20
43824;BME280;29470;53.550;9.926;2023-07-22T08:51:04;100843.81;;;23.68;45.11
43824;BME280;29470;53.550;9.926;2023-07-22T08:56:07;100852.16;;;23.96;44.56
43824;BME280;29470;53.550;9.926;2023-07-22T09:01:12;100843.22;;;24.45;44.74
43824;BME280;29470;53.550;9.926;2023-07-22T09:06:15;100840.41;;;25.00;43.08
43824;BME280;29470;53.550;9.926;2023-07-22T09:11:19;100852.47;;;24.13;43.74
43824;BME280;29470;53.550;9.926;2023-07-22T09:16:24;100839.56;;;23.78;44.54
43824;BME280;29470;53.550;9.926;2023-07-22T09:21:33;100844.13;;;23.88;45.17
43824;BME280;29470;53.550;9.926;2023-07-22T09:26:42;100843.59;;;24.71;43.03
43824;BME280;29470;53.550;9.926;2023-07-22T09:31:50;100845.22;;;24.60;42.05
43824;BME280;29470;53.550;9.926;2023-07-22T09:36:54;100833.16;;;24.82;42.17
43824;BME280;29470;53.550;9.926;2023-07-22T09:41:57;100835.59;;;24.66;41.78
43824;BME280;29470;53.550;9.926;2023-07-22T09:47:07;100843.81;;;24.88;42.05
43824;BME280;29470;53.550;9.926;2023-07-22T09:52:11;100834.72;;;24.66;41.59
43824;BME280;29470;53.550;9.926;2023-07-22T09:57:15;100839.91;;;24.61;42.31
43824;BME280;29470;53.550;9.926;2023-07-22T10:02:20;100843.88;;;24.28;42.39
43824;BME280;29470;53.550;9.926;2023-07-22T10:07:25;100833.41;;;25.04;40.89
43824;BME280;29470;53.550;9.926;2023-07-22T10:12:28;100840.63;;;25.19;41.38
43824;BME280;29470;53.550;9.926;2023-07-22T10:17:33;100827.00;;;25.69;39.35
43824;BME280;29470;53.550;9.926;2023-07-22T10:22:37;100833.28;;;24.91;39.18
43824;BME280;29470;53.550;9.926;2023-07-22T10:27:40;100815.72;;;25.01;39.36
43824;BME280;29470;53.550;9.926;2023-07-22T10:32:45;100820.72;;;24.11;40.21
43824;BME280;29470;53.550;9.926;2023-07-22T10:37:49;100830.97;;;25.24;38.92
43824;BME280;29470;53.550;9.926;2023-07-22T10:42:53;100820.31;;;25.16;39.83
43824;BME280;29470;53.550;9.926;2023-07-22T10:48:03;100825.34;;;24.91;40.37
43824;BME280;29470;53.550;9.926;2023-07-22T10:53:10;100832.72;;;24.51;40.78
43824;BME280;29470;53.550;9.926;2023-07-22T10:58:13;100837.19;;;24.55;40.26
43824;BME280;29470;53.550;9.926;2023-07-22T11:03:19;100823.75;;;25.10;39.90
43824;BME280;29470;53.550;9.926;2023-07-22T11:08:35;100815.34;;;25.47;38.97
43824;BME280;29470;53.550;9.926;2023-07-22T11:13:39;100809.28;;;25.61;38.19
43824;BME280;29470;53.550;9.926;2023-07-22T11:18:44;100816.66;;;26.08;37.83
43824;BME280;29470;53.550;9.926;2023-07-22T11:23:47;100812.03;;;25.76;38.63
43824;BME280;29470;53.550;9.926;2023-07-22T11:28:50;100807.22;;;26.55;36.94
43824;BME280;29470;53.550;9.926;2023-07-22T11:33:55;100816.06;;;26.54;37.87
43824;BME280;29470;53.550;9.926;2023-07-22T11:39:01;100796.63;;;26.54;38.12
43824;BME280;29470;53.550;9.926;2023-07-22T11:44:05;100793.84;;;26.26;37.96
43824;BME280;29470;53.550;9.926;2023-07-22T11:49:11;100798.59;;;25.48;39.92
43824;BME280;29470;53.550;9.926;2023-07-22T11:54:14;100797.88;;;25.74;39.20
43824;BME280;29470;53.550;9.926;2023-07-22T11:59:32;100785.16;;;25.31;40.46
43824;BME280;29470;53.550;9.926;2023-07-22T12:04:38;100784.09;;;26.17;38.55
43824;BME280;29470;53.550;9.926;2023-07-22T12:09:40;100779.94;;;26.90;37.59
43824;BME280;29470;53.550;9.926;2023-07-22T12:14:43;100775.56;;;27.03;37.43
43824;BME280;29470;53.550;9.926;2023-07-22T12:19:54;100766.59;;;26.69;38.15
43824;BME280;29470;53.550;9.926;2023-07-22T12:25:00;100774.56;;;26.75;38.10
43824;BME280;29470;53.550;9.926;2023-07-22T12:30:07;100779.28;;;25.68;40.22
43824;BME280;29470;53.550;9.926;2023-07-22T12:35:12;100779.41;;;25.82;40.28
43824;BME280;29470;53.550;9.926;2023-07-22T12:40:16;100785.81;;;25.07;41.50
43824;BME280;29470;53.550;9.926;2023-07-22T12:45:19;100789.91;;;24.78;42.81
43824;BME280;29470;53.550;9.926;2023-07-22T12:50:23;100802.09;;;24.68;43.84
43824;BME280;29470;53.550;9.926;2023-07-22T12:55:25;100808.22;;;24.64;43.44
43824;BME280;29470;53.550;9.926;2023-07-22T13:00:28;100806.19;;;23.83;47.72
43824;BME280;29470;53.550;9.926;2023-07-22T13:05:33;100809.72;;;23.31;50.41
43824;BME280;29470;53.550;9.926;2023-07-22T13:10:36;100802.19;;;23.53;51.57
43824;BME280;29470;53.550;9.926;2023-07-22T13:15:40;100805.78;;;23.57;52.57
43824;BME280;29470;53.550;9.926;2023-07-22T13:20:44;100823.03;;;23.36;54.81
43824;BME280;29470;53.550;9.926;2023-07-22T13:25:47;100830.88;;;22.08;62.86
43824;BME280;29470;53.550;9.926;2023-07-22T13:30:51;100844.03;;;21.70;66.81
43824;BME280;29470;53.550;9.926;2023-07-22T13:35:56;100843.19;;;21.06;72.08
43824;BME280;29470;53.550;9.926;2023-07-22T13:40:59;100840.28;;;21.62;69.76
43824;BME280;29470;53.550;9.926;2023-07-22T13:46:02;100819.97;;;22.70;66.30
43824;BME280;29470;53.550;9.926;2023-07-22T13:51:06;100821.81;;;23.20;63.85
43824;BME280;29470;53.550;9.926;2023-07-22T13:56:09;100815.78;;;23.78;61.65
43824;BME280;29470;53.550;9.926;2023-07-22T14:01:13;100801.31;;;24.08;59.82
43824;BME280;29470;53.550;9.926;2023-07-22T14:06:17;100800.59;;;24.18;59.43
43824;BME280;29470;53.550;9.926;2023-07-22T14:11:20;100800.16;;;23.90;62.49
43824;BME280;29470;53.550;9.926;2023-07-22T14:16:23;100799.84;;;24.30;57.36
43824;BME280;29470;53.550;9.926;2023-07-22T14:21:27;100803.16;;;24.12;57.95
43824;BME280;29470;53.550;9.926;2023-07-22T14:26:30;100802.97;;;24.01;53.47
43824;BME280;29470;53.550;9.926;2023-07-22T14:31:33;100807.91;;;23.27;57.03
43824;BME280;29470;53.550;9.926;2023-07-22T14:36:37;100801.88;;;23.34;58.14
43824;BME280;29470;53.550;9.926;2023-07-22T14:41:41;100794.63;;;23.75;56.86
43824;BME280;29470;53.550;9.926;2023-07-22T14:46:44;100782.75;;;23.00;57.25
43824;BME280;29470;53.550;9.926;2023-07-22T14:51:48;100790.75;;;22.59;58.06
43824;BME280;29470;53.550;9.926;2023-07-22T14:56:51;100784.94;;;22.75;57.29
43824;BME280;29470;53.550;9.926;2023-07-22T15:01:54;100773.41;;;23.67;55.64
43824;BME280;29470;53.550;9.926;2023-07-22T15:06:58;100766.75;;;23.38;55.81
43824;BME280;29470;53.550;9.926;2023-07-22T15:12:02;100778.63;;;23.64;57.57
43824;BME280;29470;53.550;9.926;2023-07-22T15:17:05;100765.72;;;23.86;54.97
43824;BME280;29470;53.550;9.926;2023-07-22T15:22:10;100766.00;;;23.44;55.89
43824;BME280;29470;53.550;9.926;2023-07-22T15:27:13;100774.72;;;23.40;56.62
43824;BME280;29470;53.550;9.926;2023-07-22T15:32:16;100782.03;;;22.21;60.87
43824;BME280;29470;53.550;9.926;2023-07-22T15:37:21;100784.94;;;21.94;63.12
43824;BME280;29470;53.550;9.926;2023-07-22T15:42:24;100783.53;;;22.10;65.73
43824;BME280;29470;53.550;9.926;2023-07-22T15:47:26;100772.06;;;22.06;65.78
43824;BME280;29470;53.550;9.926;2023-07-22T15:52:31;100772.56;;;22.30;65.85
43824;BME280;29470;53.550;9.926;2023-07-22T15:57:36;100772.97;;;22.48;63.89
43824;BME280;29470;53.550;9.926;2023-07-22T16:02:39;100767.09;;;22.20;64.25
43824;BME280;29470;53.550;9.926;2023-07-22T16:07:44;100780.59;;;21.61;67.72
43824;BME280;29470;53.550;9.926;2023-07-22T16:12:47;100778.13;;;21.32;66.94
43824;BME280;29470;53.550;9.926;2023-07-22T16:17:49;100783.66;;;21.08;65.70
43824;BME280;29470;53.550;9.926;2023-07-22T16:22:54;100788.91;;;20.77;67.35
43824;BME280;29470;53.550;9.926;2023-07-22T16:27:57;100777.00;;;20.59;69.01
43824;BME280;29470;53.550;9.926;2023-07-22T16:33:00;100775.13;;;20.84;68.97
43824;BME280;29470;53.550;9.926;2023-07-22T16:38:04;100761.44;;;20.66;69.72
43824;BME280;29470;53.550;9.926;2023-07-22T16:43:07;100766.38;;;20.24;69.55
43824;BME280;29470;53.550;9.926;2023-07-22T16:48:10;100775.00;;;20.80;68.75
43824;BME280;29470;53.550;9.926;2023-07-22T16:53:14;100771.56;;;20.52;70.26
43824;BME280;29470;53.550;9.926;2023-07-22T16:58:17;100775.72;;;20.75;70.56
43824;BME280;29470;53.550;9.926;2023-07-22T17:03:20;100761.53;;;21.01;68.30
43824;BME280;29470;53.550;9.926;2023-07-22T17:08:26;100758.06;;;21.02;66.72
43824;BME280;29470;53.550;9.926;2023-07-22T17:13:29;100759.41;;;20.86;69.12
43824;BME280;29470;53.550;9.926;2023-07-22T17:18:32;100755.88;;;20.85;70.06
43824;BME280;29470;53.550;9.926;2023-07-22T17:23:37;100740.00;;;20.82;70.45
43824;BME280;29470;53.550;9.926;2023-07-22T17:28:39;100753.53;;;20.66;71.65
43824;BME280;29470;53.550;9.926;2023-07-22T17:33:42;100750.59;;;20.84;72.19
43824;BME280;29470;53.550;9.926;2023-07-22T17:38:47;100750.50;;;20.81;74.42
43824;BME280;29470;53.550;9.926;2023-07-22T17:43:49;100736.22;;;20.72;72.56
43824;BME280;29470;53.550;9.926;2023-07-22T17:48:52;100745.28;;;20.82;73.75
43824;BME280;29470;53.550;9.926;2023-07-22T17:53:56;100736.25;;;20.74;72.97
43824;BME280;29470;53.550;9.926;2023-07-22T17:58:59;100743.59;;;20.54;72.96
43824;BME280;29470;53.550;9.926;2023-07-22T18:04:03;100725.47;;;20.65;71.78
43824;BME280;29470;53.550;9.926;2023-07-22T18:09:07;100732.84;;;20.77;73.06
43824;BME280;29470;53.550;9.926;2023-07-22T18:14:10;100723.97;;;20.73;72.08
43824;BME280;29470;53.550;9.926;2023-07-22T18:19:12;100721.69;;;20.85;71.26
43824;BME280;29470;53.550;9.926;2023-07-22T18:24:17;100718.38;;;20.60;71.15
43824;BME280;29470;53.550;9.926;2023-07-22T18:29:20;100714.94;;;20.63;71.72
43824;BME280;29470;53.550;9.926;2023-07-22T18:34:23;100729.53;;;20.21;74.47
43824;BME280;29470;53.550;9.926;2023-07-22T18:39:27;100724.94;;;20.14;72.50
43824;BME280;29470;53.550;9.926;2023-07-22T18:44:30;100722.03;;;20.35;73.36
43824;BME280;29470;53.550;9.926;2023-07-22T18:49:33;100711.25;;;20.56;71.14
43824;BME280;29470;53.550;9.926;2023-07-22T18:54:37;100717.34;;;20.23;74.00
43824;BME280;29470;53.550;9.926;2023-07-22T18:59:42;100725.31;;;19.97;74.96
43824;BME280;29470;53.550;9.926;2023-07-22T19:04:45;100727.41;;;20.09;75.46
43824;BME280;29470;53.550;9.926;2023-07-22T19:09:49;100726.56;;;20.10;75.71
43824;BME280;29470;53.550;9.926;2023-07-22T19:14:52;100727.88;;;19.96;77.92
43824;BME280;29470;53.550;9.926;2023-07-22T19:19:56;100719.59;;;20.11;76.58
43824;BME280;29470;53.550;9.926;2023-07-22T19:25:00;100720.19;;;20.02;77.97
43824;BME280;29470;53.550;9.926;2023-07-22T19:30:04;100735.25;;;19.80;79.93
43824;BME280;29470;53.550;9.926;2023-07-22T19:35:07;100734.03;;;19.96;79.69
43824;BME280;29470;53.550;9.926;2023-07-22T19:40:12;100738.56;;;20.02;80.94
43824;BME280;29470;53.550;9.926;2023-07-22T19:45:16;100738.63;;;19.49;83.52
43824;BME280;29470;53.550;9.926;2023-07-22T19:50:19;100734.25;;;19.49;84.02
43824;BME280;29470;53.550;9.926;2023-07-22T19:55:24;100731.19;;;19.35;84.96
43824;BME280;29470;53.550;9.926;2023-07-22T20:00:27;100737.78;;;19.77;83.69
43824;BME280;29470;53.550;9.926;2023-07-22T20:05:30;100740.66;;;19.57;84.60
43824;BME280;29470;53.550;9.926;2023-07-22T20:10:34;100742.50;;;19.60;84.17
43824;BME280;29470;53.550;9.926;2023-07-22T20:15:37;100735.56;;;19.62;84.26
43824;BME280;29470;53.550;9.926;2023-07-22T20:20:40;100737.28;;;19.62;86.41
43824;BME280;29470;53.550;9.926;2023-07-22T20:25:44;100742.03;;;19.46;87.34
43824;BME280;29470;53.550;9.926;2023-07-22T20:30:48;100750.06;;;19.23;89.56
43824;BME280;29470;53.550;9.926;2023-07-22T20:35:54;100746.28;;;19.70;87.34
43824;BME280;29470;53.550;9.926;2023-07-22T20:41:02;100739.97;;;19.91;84.42
43824;BME280;29470;53.550;9.926;2023-07-22T20:46:05;100743.88;;;19.49;86.44
43824;BME280;29470;53.550;9.926;2023-07-22T20:51:08;100732.88;;;19.61;84.72
43824;BME280;29470;53.550;9.926;2023-07-22T20:56:12;100739.56;;;18.97;87.74
43824;BME280;29470;53.550;9.926;2023-07-22T21:01:15;100727.44;;;19.54;85.98
43824;BME280;29470;53.550;9.926;2023-07-22T21:06:18;100731.53;;;19.46;87.20
43824;BME280;29470;53.550;9.926;2023-07-22T21:11:22;100743.66;;;19.41;88.15
43824;BME280;29470;53.550;9.926;2023-07-22T21:16:26;100745.44;;;19.42;87.95
43824;BME280;29470;53.550;9.926;2023-07-22T21:21:29;100734.63;;;19.33;87.94
43824;BME280;29470;53.550;9.926;2023-07-22T21:26:33;100739.16;;;19.38;88.04
43824;BME280;29470;53.550;9.926;2023-07-22T21:31:36;100731.59;;;19.20;89.99
43824;BME280;29470;53.550;9.926;2023-07-22T21:36:39;100731.94;;;19.05;89.01
43824;BME280;29470;53.550;9.926;2023-07-22T21:41:43;100725.50;;;19.21;88.91
43824;BME280;29470;53.550;9.926;2023-07-22T21:46:48;100725.38;;;18.92;88.16
43824;BME280;29470;53.550;9.926;2023-07-22T21:51:51;100742.38;;;19.04;89.37
43824;BME280;29470;53.550;9.926;2023-07-22T21:56:55;100750.72;;;18.69;89.87
43824;BME280;29470;53.550;9.926;2023-07-22T22:01:58;100739.91;;;19.08;86.61
43824;BME280;29470;53.550;9.926;2023-07-22T22:07:01;100749.47;;;18.82;89.47
43824;BME280;29470;53.550;9.926;2023-07-22T22:12:06;100759.88;;;18.56;90.02
43824;BME280;29470;53.550;9.926;2023-07-22T22:17:09;100744.94;;;19.02;87.56
43824;BME280;29470;53.550;9.926;2023-07-22T22:22:14;100745.63;;;18.96;87.19
43824;BME280;29470;53.550;9.926;2023-07-22T22:27:18;100740.97;;;18.65;90.47
43824;BME280;29470;53.550;9.926;2023-07-22T22:32:21;100740.97;;;18.40;91.15
43824;BME280;29470;53.550;9.926;2023-07-22T22:37:24;100729.03;;;18.73;89.64
43824;BME280;29470;53.550;9.926;2023-07-22T22:42:33;100734.41;;;18.52;88.82
43824;BME280;29470;53.550;9.926;2023-07-22T22:47:35;100730.09;;;18.52;86.36
43824;BME280;29470;53.550;9.926;2023-07-22T22:52:38;100726.66;;;18.55;88.06
43824;BME280;29470;53.550;9.926;2023-07-22T22:57:43;100722.72;;;18.42;88.45
43824;BME280;29470;53.550;9.926;2023-07-22T23:02:47;100723.34;;;18.35;89.98
43824;BME280;29470;53.550;9.926;2023-07-22T23:07:52;100718.22;;;18.15;89.57
43824;BME280;29470;53.550;9.926;2023-07-22T23:12:56;100705.88;;;18.60;86.51
43824;BME280;29470;53.550;9.926;2023-07-22T23:17:59;100701.31;;;18.30;87.70
43824;BME280;29470;53.550;9.926;2023-07-22T23:23:02;100707.41;;;18.29;86.88
43824;BME280;29470;53.550;9.926;2023-07-22T23:28:06;100705.66;;;18.29;86.10
43824;BME280;29470;53.550;9.926;2023-07-22T23:33:09;100695.09;;;18.50;86.15
43824;BME280;29470;53.550;9.926;2023-07-22T23:38:12;100684.88;;;18.58;86.08
43824;BME280;29470;53.550;9.926;2023-07-22T23:43:17;100691.84;;;18.33;87.38
43824;BME280;29470;53.550;9.926;2023-07-22T23:48:22;100674.22;;;18.29;85.83
43824;BME280;29470;53.550;9.926;2023-07-22T23:53:26;100678.72;;;18.32;86.41
43824;BME280;29470;53.550;9.926;2023-07-22T23:58:31;100678.19;;;18.18;87.12
